Time;durP1;ratioP1;P1;durP2;ratioP2;P2;SDS_P1;SDS_P2;PMS_P1;PMS_P2;Temp;Humidity;BMP_temperature;BMP_pressure;BME280_temperature;BME280_humidity;BME280_pressure;Samples;Min_cycle;Max_cycle;Signal;HPM_P1;HPM_P2
2021/12/12 00:00:31;;;;;;;31.75;13.07;;;;;;;3.81;91.60;101968.50;5075821;28;20490;-80
2021/12/12 00:03:00;;;;;;;26.90;12.55;;;;;;;3.70;91.21;101949.38;5057507;28;20032;-80
2021/12/12 00:05:35;;;;;;;28.58;13.38;;;;;;;3.61;91.12;101927.59;5071718;28;20040;-79
2021/12/12 00:08:01;;;;;;;29.08;12.38;;;;;;;3.75;91.23;101958.09;5093327;28;20044;-80
2021/12/12 00:10:30;;;;;;;35.42;13.20;;;;;;;3.67;90.85;101947.69;5096022;28;20084;-80
2021/12/12 00:13:05;;;;;;;27.13;11.68;;;;;;;3.86;91.02;101969.31;5093754;28;20036;-80
2021/12/12 00:15:30;;;;;;;34.17;12.55;;;;;;;3.68;90.98;101933.66;5096260;28;20126;-79
2021/12/12 00:17:56;;;;;;;30.38;11.82;;;;;;;3.89;91.19;101952.59;5096076;28;20501;-79
2021/12/12 00:20:24;;;;;;;29.58;12.27;;;;;;;3.89;90.99;101957.84;5096025;28;20028;-80
2021/12/12 00:22:52;;;;;;;35.55;12.02;;;;;;;3.90;91.00;101956.94;5095694;28;20028;-80
2021/12/12 00:25:18;;;;;;;28.60;12.63;;;;;;;3.66;91.15;101924.91;5084860;28;20027;-80
2021/12/12 00:27:44;;;;;;;25.48;11.70;;;;;;;3.83;91.02;101945.66;5095825;28;20024;-80
2021/12/12 00:30:12;;;;;;;24.42;11.60;;;;;;;3.91;90.90;101956.03;5096028;28;20024;-80
2021/12/12 00:32:39;;;;;;;26.42;11.73;;;;;;;3.87;90.31;101948.19;5104415;28;20024;-79
2021/12/12 00:35:09;;;;;;;26.85;12.15;;;;;;;3.93;90.80;101947.22;5095151;28;20094;-80
2021/12/12 00:37:34;;;;;;;34.50;11.70;;;;;;;3.72;90.91;101903.75;5075484;28;20040;-80
2021/12/12 00:40:11;;;;;;;26.77;11.45;;;;;;;3.90;90.64;101926.22;5090464;28;20035;-81
2021/12/12 00:42:38;;;;;;;26.45;11.77;;;;;;;4.02;90.24;101940.94;5084057;28;20520;-80
2021/12/12 00:45:11;;;;;;;28.00;11.70;;;;;;;3.99;90.95;101944.50;5094244;28;20032;-80
2021/12/12 00:47:37;;;;;;;19.70;10.45;;;;;;;4.00;90.74;101937.44;5095502;28;20093;-80
2021/12/12 00:50:08;;;;;;;27.13;11.15;;;;;;;4.02;91.50;101940.94;5095344;28;20028;-80
2021/12/12 00:52:34;;;;;;;24.23;11.05;;;;;;;3.89;91.02;101919.25;5094692;28;20114;-81
2021/12/12 00:55:00;;;;;;;25.23;11.93;;;;;;;3.91;91.26;101917.44;5094482;28;20103;-80
2021/12/12 00:57:27;;;;;;;30.00;11.50;;;;;;;3.86;91.26;101907.00;5094944;28;20044;-79
2021/12/12 00:59:52;;;;;;;31.08;12.48;;;;;;;4.06;91.56;101930.34;5095201;28;20024;-81
2021/12/12 01:02:22;;;;;;;30.95;11.07;;;;;;;3.91;91.24;101900.78;5094877;28;20053;-79
2021/12/12 01:04:54;;;;;;;26.42;11.63;;;;;;;3.90;91.05;101893.78;5094883;28;20467;-80
2021/12/12 01:07:28;;;;;;;25.70;11.85;;;;;;;4.06;91.67;101913.69;5083040;28;20491;-80
2021/12/12 01:09:58;;;;;;;25.08;11.40;;;;;;;3.91;92.31;101899.00;5056479;28;20025;-80
2021/12/12 01:12:31;;;;;;;33.22;11.25;;;;;;;4.00;92.69;101913.75;5074787;28;20034;-80
2021/12/12 01:15:25;;;;;;;26.00;12.05;;;;;;;4.01;92.25;101924.28;5072780;28;20028;-80
2021/12/12 01:17:55;;;;;;;29.10;12.30;;;;;;;3.83;92.41;101895.69;5074237;28;20074;-80
2021/12/12 01:20:56;;;;;;;30.17;12.10;;;;;;;4.03;92.29;101924.22;5074679;28;20039;-80
2021/12/12 01:23:41;;;;;;;34.40;13.55;;;;;;;3.90;92.94;101893.78;5069853;28;20102;-80
2021/12/12 01:26:08;;;;;;;24.73;11.63;;;;;;;4.06;91.96;101913.69;5074636;28;20475;-80
2021/12/12 01:28:37;;;;;;;29.65;12.55;;;;;;;3.95;92.49;101900.72;5056140;28;20107;-80
2021/12/12 01:31:08;;;;;;;27.95;12.70;;;;;;;4.02;92.31;101930.41;5074441;28;20031;-79
2021/12/12 01:33:35;;;;;;;25.98;12.73;;;;;;;4.01;92.81;101915.53;5073596;28;20471;-81
2021/12/12 01:36:11;;;;;;;25.25;11.57;;;;;;;4.05;92.51;101920.69;5073956;28;20035;-79
2021/12/12 01:38:55;;;;;;;32.53;12.93;;;;;;;3.92;92.79;101894.63;5073882;28;20399;-80
2021/12/12 01:41:38;;;;;;;34.30;13.05;;;;;;;4.07;93.23;101920.66;5073948;28;20020;-80
2021/12/12 01:44:11;;;;;;;29.42;12.25;;;;;;;3.99;93.50;101896.25;5073637;28;20028;-80
2021/12/12 01:46:45;;;;;;;28.65;11.93;;;;;;;4.08;93.03;101918.00;5073628;28;20390;-79
2021/12/12 01:49:15;;;;;;;32.33;12.82;;;;;;;4.13;92.92;101919.69;5073784;28;20103;-79
2021/12/12 01:51:41;;;;;;;;;;;;;;;4.18;92.60;101918.72;5074192;28;20024;-80
2021/12/12 01:54:08;;;;;;;30.27;12.45;;;;;;;3.91;92.75;101882.34;5073047;28;19964;-80
2021/12/12 01:56:42;;;;;;;36.92;12.73;;;;;;;4.12;93.09;101912.66;5073869;28;20035;-81
2021/12/12 01:59:12;;;;;;;35.08;13.07;;;;;;;4.13;93.15;101914.41;5073303;28;20111;-80
2021/12/12 02:01:49;;;;;;;34.47;13.00;;;;;;;3.93;93.37;101867.41;5073459;28;20024;-80
2021/12/12 02:04:20;;;;;;;35.38;12.85;;;;;;;3.91;93.71;101862.16;5071406;28;20035;-80
2021/12/12 02:06:47;;;;;;;26.92;11.52;;;;;;;4.15;92.80;101896.81;5079826;28;20063;-81
2021/12/12 02:09:14;;;;;;;39.15;12.20;;;;;;;4.08;93.79;101896.94;5093539;28;20046;-80
2021/12/12 02:11:46;;;;;;;31.42;12.60;;;;;;;4.17;94.04;101908.19;5093630;28;20463;-80
2021/12/12 02:14:14;;;;;;;29.10;11.38;;;;;;;4.00;94.34;101876.91;5091260;28;20125;-81
2021/12/12 02:16:44;;;;;;;32.15;12.80;;;;;;;4.03;94.19;101869.84;5093433;28;20540;-80
2021/12/12 02:19:11;;;;;;;31.35;11.27;;;;;;;4.13;93.93;101894.22;5093314;28;20412;-80
2021/12/12 02:22:04;;;;;;;26.63;12.30;;;;;;;4.12;93.99;101875.81;5093726;28;20028;-80
2021/12/12 02:35:27;;;;;;;29.30;11.45;;;;;;;4.33;94.09;101891.19;5085447;28;20509;-79
2021/12/12 02:37:56;;;;;;;31.45;12.13;;;;;;;4.35;94.36;101901.69;5093137;28;20360;-80
2021/12/12 02:40:26;;;;;;;38.28;13.10;;;;;;;4.38;94.34;101897.22;5092706;28;20394;-80
2021/12/12 02:42:52;;;;;;;30.15;12.85;;;;;;;4.28;94.37;101874.63;5090021;28;20043;-80
2021/12/12 02:45:20;;;;;;;26.45;11.48;;;;;;;4.40;94.17;101890.16;5093017;28;20028;-81
2021/12/12 02:47:54;;;;;;;25.38;11.05;;;;;;;4.31;94.36;101854.34;5093014;28;20107;-80
2021/12/12 02:50:24;;;;;;;32.13;11.05;;;;;;;4.44;94.89;101872.53;5092870;28;20028;-80
2021/12/12 02:52:53;;;;;;;32.83;11.95;;;;;;;4.47;94.83;101860.19;5092864;28;20028;-80
2021/12/12 02:55:26;;;;;;;29.80;11.40;;;;;;;4.36;94.80;101842.88;5074016;28;20036;-81
2021/12/12 02:57:53;;;;;;;26.67;11.68;;;;;;;4.47;94.27;101856.66;5090854;28;20031;-80
2021/12/12 03:00:22;;;;;;;29.85;11.48;;;;;;;4.41;95.37;101862.94;5092892;28;20039;-80
2021/12/12 03:02:48;;;;;;;33.35;12.52;;;;;;;3.66;95.31;101730.25;5074554;28;20032;-80
2021/12/12 03:05:17;;;;;;;30.65;12.60;;;;;;;4.52;96.11;101867.97;5092743;28;20024;-81
2021/12/12 03:07:44;;;;;;;22.65;11.73;;;;;;;4.27;95.86;101820.22;5092286;28;20434;-80
2021/12/12 03:10:16;;;;;;;33.78;12.25;;;;;;;4.49;95.80;101853.09;5092793;28;20040;-80
2021/12/12 03:12:42;;;;;;;33.53;11.95;;;;;;;4.55;95.33;101863.50;5092531;28;20027;-81
2021/12/12 03:15:21;;;;;;;27.83;12.07;;;;;;;4.25;96.43;101814.97;5092463;28;20024;-80
2021/12/12 03:17:49;;;;;;;22.63;11.25;;;;;;;4.54;96.29;101867.03;5091892;28;20023;-80
2021/12/12 03:20:24;;;;;;;27.85;12.10;;;;;;;4.38;96.36;101836.66;5092917;28;20032;-80
2021/12/12 03:23:29;;;;;;;29.58;12.18;;;;;;;4.59;95.68;101866.94;5092440;28;20455;-80
2021/12/12 03:26:00;;;;;;;36.70;13.40;;;;;;;4.44;96.65;101836.53;5092639;28;20031;-80
2021/12/12 03:28:28;;;;;;;36.63;12.38;;;;;;;4.43;96.55;101824.25;5092150;28;20131;-81
2021/12/12 03:30:57;;;;;;;28.05;12.23;;;;;;;4.44;96.87;101827.75;5092572;28;20493;-81
2021/12/12 03:33:25;;;;;;;26.35;12.07;;;;;;;4.59;97.11;101837.97;5092739;28;20032;-81
2021/12/12 03:35:54;;;;;;;27.98;13.20;;;;;;;4.48;96.71;101809.22;5092647;28;20039;-80
2021/12/12 03:38:23;;;;;;;37.92;12.10;;;;;;;4.63;96.71;101830.84;5077788;28;20036;-80
2021/12/12 03:40:49;;;;;;;27.55;12.25;;;;;;;4.60;97.09;101828.28;5092343;28;20016;-79
2021/12/12 03:43:15;;;;;;;34.42;12.20;;;;;;;4.49;97.38;101820.63;5092450;28;20035;-80
2021/12/12 03:45:42;;;;;;;36.20;12.57;;;;;;;4.63;97.20;101833.50;5091095;28;20474;-80
2021/12/12 03:48:17;;;;;;;28.67;12.73;;;;;;;4.36;97.65;101787.56;5090895;28;20505;-80
2021/12/12 03:50:47;;;;;;;29.83;12.63;;;;;;;4.48;97.68;101816.25;5092297;28;20036;-81
2021/12/12 03:53:15;;;;;;;29.85;13.27;;;;;;;4.44;98.18;101809.31;5092274;28;20052;-81
2021/12/12 03:55:42;;;;;;;27.90;12.85;;;;;;;4.60;97.78;101834.44;5092002;28;20024;-80
2021/12/12 03:58:08;;;;;;;29.77;13.32;;;;;;;4.63;98.22;101833.50;5092332;28;20077;-80
2021/12/12 04:00:55;;;;;;;25.25;11.73;;;;;;;4.75;97.07;101833.22;5092370;28;20032;-80
2021/12/12 04:03:21;;;;;;;34.40;13.52;;;;;;;4.71;97.45;101823.66;5092196;28;20493;-80
2021/12/12 04:05:54;;;;;;;29.20;12.63;;;;;;;4.69;97.64;101828.09;5090670;28;20573;-81
2021/12/12 04:08:30;;;;;;;25.75;12.35;;;;;;;4.72;98.18;101833.28;5090194;28;20097;-81
2021/12/12 04:10:56;;;;;;;30.48;13.60;;;;;;;4.66;98.29;101836.91;5091175;28;20032;-79
2021/12/12 04:13:21;;;;;;;28.25;13.30;;;;;;;4.62;98.78;101814.19;5092097;28;20043;-81
2021/12/12 04:15:54;;;;;;;23.00;13.98;;;;;;;4.58;99.00;101817.78;5092263;28;20036;-80
2021/12/12 04:18:25;;;;;;;29.25;12.95;;;;;;;4.74;98.60;101836.75;5091945;28;20095;-81
2021/12/12 04:20:51;;;;;;;25.70;14.13;;;;;;;4.63;98.44;101834.34;5091903;28;20032;-80
2021/12/12 04:23:19;;;;;;;26.25;14.15;;;;;;;4.61;99.05;101822.13;5092223;28;20047;-81
2021/12/12 04:25:45;;;;;;;24.65;12.02;;;;;;;4.84;98.64;101840.03;5092417;28;20398;-80
2021/12/12 04:28:10;;;;;;;28.48;12.63;;;;;;;4.66;98.85;101828.16;5095290;28;20024;-80
2021/12/12 04:30:36;;;;;;;19.60;11.45;;;;;;;4.86;98.96;101847.00;5077714;28;20028;-80
2021/12/12 04:33:01;;;;;;;25.92;12.43;;;;;;;4.50;98.88;101785.47;5095747;28;20107;-79
2021/12/12 04:35:27;;;;;;;22.67;11.48;;;;;;;4.76;98.20;101825.28;5095355;28;20040;-79
2021/12/12 04:37:54;;;;;;;22.08;11.60;;;;;;;4.83;98.68;101846.22;5081711;28;20032;-79
2021/12/12 04:40:29;;;;;;;19.48;11.63;;;;;;;4.84;99.12;101845.31;5095178;28;20379;-80
2021/12/12 04:42:56;;;;;;;19.98;11.80;;;;;;;4.75;99.42;101838.47;5095595;28;20031;-79
2021/12/12 04:45:50;;;;;;;21.85;12.23;;;;;;;4.84;99.06;101847.94;5095295;28;20044;-80
2021/12/12 04:51:19;;;;;;;20.70;11.98;;;;;;;4.92;99.43;101848.63;5094806;28;20075;-82
2021/12/12 04:53:54;;;;;;;20.67;12.40;;;;;;;4.84;99.12;101816.31;5094930;28;20060;-80
2021/12/12 04:56:28;;;;;;;21.45;11.45;;;;;;;4.81;99.76;101833.06;5095129;28;20024;-80
2021/12/12 04:59:16;;;;;;;22.92;12.20;;;;;;;4.99;100.00;101844.94;5094966;28;20031;-80
2021/12/12 05:01:44;;;;;;;18.25;11.10;;;;;;;4.87;98.78;101846.09;5094643;28;20028;-80
2021/12/12 05:04:18;;;;;;;19.13;11.35;;;;;;;4.94;99.52;101846.81;5095030;28;20505;-81
2021/12/12 05:06:49;;;;;;;15.18;11.23;;;;;;;4.95;99.59;101853.84;5092960;28;20044;-79
2021/12/12 05:09:22;;;;;;;15.45;10.85;;;;;;;4.90;99.58;101840.75;5112432;28;20059;-81
2021/12/12 05:11:59;;;;;;;14.93;10.77;;;;;;;4.99;99.52;101850.22;5075524;28;20399;-81
2021/12/12 05:14:28;;;;;;;16.30;11.25;;;;;;;4.96;100.00;101856.41;5107464;28;20075;-80
2021/12/12 05:17:04;;;;;;;21.27;12.05;;;;;;;4.97;99.92;101863.44;5076627;28;20046;-80
2021/12/12 05:19:33;;;;;;;18.98;10.38;;;;;;;4.97;100.00;101860.81;5095092;28;20032;-80
2021/12/12 05:22:05;;;;;;;18.92;10.80;;;;;;;5.08;99.58;101864.94;5092110;28;20024;-80
2021/12/12 05:24:33;;;;;;;23.73;11.88;;;;;;;4.96;99.65;101859.06;5094952;28;20019;-79
2021/12/12 05:27:05;;;;;;;18.55;10.75;;;;;;;4.96;100.00;101863.47;5094746;28;20522;-80
2021/12/12 05:29:41;;;;;;;18.23;10.63;;;;;;;5.06;100.00;101874.66;5094697;28;20020;-81
2021/12/12 05:32:10;;;;;;;16.77;10.88;;;;;;;5.08;99.53;101863.19;5087362;28;20023;-80
2021/12/12 05:34:38;;;;;;;14.95;10.68;;;;;;;5.12;100.00;101870.13;5074227;28;20071;-81
2021/12/12 05:37:05;;;;;;;15.90;10.73;;;;;;;4.96;100.00;101839.75;5073930;28;20104;-79
2021/12/12 05:39:33;;;;;;;15.73;10.75;;;;;;;5.13;100.00;101866.56;5074301;28;20032;-80
2021/12/12 05:41:59;;;;;;;19.02;10.60;;;;;;;4.94;100.00;101836.28;5074586;28;20032;-81
2021/12/12 05:44:27;;;;;;;13.00;10.05;;;;;;;5.13;100.00;101860.44;5094394;28;20026;-80
2021/12/12 05:46:55;;;;;;;13.52;10.38;;;;;;;5.05;100.00;101857.13;5094591;28;20020;-80
2021/12/12 05:49:21;;;;;;;15.23;10.43;;;;;;;5.23;100.00;101868.09;5094490;28;20020;-81
2021/12/12 05:51:46;;;;;;;17.67;10.30;;;;;;;5.12;100.00;101864.00;5094293;28;20497;-81
2021/12/12 05:54:12;;;;;;;15.23;9.70;;;;;;;5.02;100.00;101839.59;5093788;28;20108;-80
2021/12/12 05:56:40;;;;;;;20.77;11.45;;;;;;;5.21;100.00;101874.31;5093871;28;20023;-80
2021/12/12 05:59:07;;;;;;;11.85;8.43;;;;;;;5.03;100.00;101836.06;5094287;28;20561;-80
2021/12/12 06:01:33;;;;;;;14.35;10.90;;;;;;;5.11;100.00;101860.47;5093728;28;20434;-80
2021/12/12 06:03:59;;;;;;;19.75;10.30;;;;;;;5.26;100.00;101885.59;5093737;28;20039;-80
2021/12/12 06:06:29;;;;;;;16.95;10.73;;;;;;;5.21;100.00;101872.53;5093662;28;20407;-80
2021/12/12 06:08:58;;;;;;;14.75;10.20;;;;;;;5.38;100.00;101898.50;5094082;28;20082;-79
2021/12/12 06:11:26;;;;;;;16.10;10.90;;;;;;;5.34;100.00;101891.56;5094258;28;20027;-80
2021/12/12 06:13:51;;;;;;;14.07;10.57;;;;;;;5.28;100.00;101877.66;5091736;28;20471;-81
2021/12/12 06:16:21;;;;;;;16.48;10.82;;;;;;;5.25;100.00;101881.25;5093774;28;20066;-80
2021/12/12 06:18:58;;;;;;;20.03;11.30;;;;;;;5.35;100.00;101876.59;5091824;28;20046;-80
2021/12/12 06:21:24;;;;;;;16.98;11.32;;;;;;;5.22;100.00;101870.75;5092631;28;20517;-80
2021/12/12 06:23:51;;;;;;;15.32;11.48;;;;;;;5.44;100.00;101895.72;5091672;28;20123;-80
2021/12/12 06:26:18;;;;;;;19.73;12.55;;;;;;;5.30;100.00;101876.72;5092802;28;20391;-80
2021/12/12 06:28:43;;;;;;;17.80;11.63;;;;;;;5.47;100.00;101889.47;5092965;28;20020;-80
2021/12/12 06:31:09;;;;;;;15.68;11.50;;;;;;;5.28;100.00;101859.19;5093055;28;20119;-81
2021/12/12 06:33:37;;;;;;;19.42;12.25;;;;;;;5.45;100.00;101894.81;5092640;28;20153;-80
2021/12/12 06:36:04;;;;;;;15.13;11.75;;;;;;;5.51;100.00;101888.50;5091425;28;20036;-80
2021/12/12 06:38:29;;;;;;;13.85;12.23;;;;;;;5.49;100.00;101892.09;5092806;28;20046;-79
2021/12/12 06:40:56;;;;;;;18.77;11.95;;;;;;;5.54;100.00;101887.56;5093162;28;20028;-80
2021/12/12 06:43:22;;;;;;;17.25;11.98;;;;;;;5.42;100.00;101871.13;5092688;28;20020;-80
2021/12/12 06:45:48;;;;;;;18.95;12.63;;;;;;;5.52;100.00;101889.38;5092824;28;20111;-80
2021/12/12 06:48:16;;;;;;;22.25;12.93;;;;;;;5.56;100.00;101897.19;5090594;28;20422;-81
2021/12/12 06:50:45;;;;;;;18.00;12.93;;;;;;;5.61;100.00;101902.31;5090913;28;20028;-81
2021/12/12 06:53:13;;;;;;;17.13;12.65;;;;;;;5.54;100.00;101890.22;5092236;28;20105;-80
2021/12/12 06:55:44;;;;;;;15.77;12.20;;;;;;;5.63;100.00;101906.66;5090698;28;20020;-80
2021/12/12 06:58:12;;;;;;;18.52;13.40;;;;;;;5.64;100.00;101911.03;5092505;28;20016;-80
2021/12/12 07:00:40;;;;;;;20.80;12.82;;;;;;;5.64;100.00;101916.31;5092728;28;20467;-79
2021/12/12 07:03:05;;;;;;;21.58;14.20;;;;;;;5.69;100.00;101914.44;5091956;28;20024;-80
2021/12/12 07:05:32;;;;;;;20.38;13.68;;;;;;;5.77;100.00;101910.75;5092575;28;20370;-80
2021/12/12 07:07:58;;;;;;;19.80;13.95;;;;;;;5.77;100.00;101910.75;5089327;28;20131;-80
2021/12/12 07:10:28;;;;;;;21.38;13.38;;;;;;;5.76;100.00;101890.50;5092847;28;20060;-81
2021/12/12 07:12:56;;;;;;;23.83;13.45;;;;;;;5.76;100.00;101906.34;5091578;28;20061;-80
2021/12/12 07:15:26;;;;;;;18.85;14.23;;;;;;;5.79;100.00;101912.41;5090627;28;20027;-80
2021/12/12 07:17:56;;;;;;;20.38;13.52;;;;;;;5.80;100.00;101910.66;5092348;28;20107;-80
2021/12/12 07:20:22;;;;;;;19.92;14.43;;;;;;;5.76;100.00;101909.84;5092714;28;20024;-80
2021/12/12 07:22:48;;;;;;;23.60;14.82;;;;;;;5.73;100.00;101893.22;5092584;28;20030;-80
2021/12/12 07:25:15;;;;;;;19.73;14.15;;;;;;;5.84;100.00;101893.81;5091898;28;20031;-79
2021/12/12 07:27:40;;;;;;;19.50;13.77;;;;;;;5.88;100.00;101921.84;5092219;28;20036;-80
2021/12/12 07:30:07;;;;;;;18.92;14.15;;;;;;;5.81;100.00;101901.81;5092395;28;20032;-82
2021/12/12 07:32:35;;;;;;;23.17;14.43;;;;;;;5.81;100.00;101897.41;5092455;28;20435;-81
2021/12/12 07:35:01;;;;;;;19.88;14.07;;;;;;;5.87;100.00;101913.06;5092496;28;20083;-81
2021/12/12 07:37:29;;;;;;;24.27;15.10;;;;;;;5.88;100.00;101908.66;5090206;28;20119;-80
2021/12/12 07:39:54;;;;;;;18.52;14.30;;;;;;;6.02;100.00;101913.63;5092708;28;20081;-80
2021/12/12 07:42:21;;;;;;;24.67;15.05;;;;;;;5.91;100.00;101905.94;5092874;28;20028;-81
2021/12/12 07:44:47;;;;;;;18.20;13.95;;;;;;;5.67;100.00;101871.34;5099498;28;20031;-80
2021/12/12 07:47:14;;;;;;;25.02;15.88;;;;;;;5.96;100.00;101922.56;5092158;28;20063;-80
2021/12/12 07:49:44;;;;;;;22.13;14.65;;;;;;;5.98;100.00;101923.41;5091036;28;20032;-80
2021/12/12 07:52:13;;;;;;;24.35;15.60;;;;;;;5.84;100.00;101893.81;5076059;28;20031;-80
2021/12/12 07:54:39;;;;;;;24.45;15.50;;;;;;;5.99;100.00;101924.25;5091188;28;20031;-81
2021/12/12 07:57:05;;;;;;;23.98;16.02;;;;;;;6.04;100.00;101925.00;5088122;28;20039;-81
2021/12/12 07:59:33;;;;;;;24.67;15.68;;;;;;;6.03;100.00;101923.25;5087839;28;20028;-80
2021/12/12 08:01:58;;;;;;;23.85;15.75;;;;;;;6.09;100.00;101931.91;5082440;28;20056;-80
2021/12/12 08:04:27;;;;;;;27.08;16.15;;;;;;;6.14;100.00;101939.69;5077650;28;20043;-81
2021/12/12 08:06:54;;;;;;;24.95;15.48;;;;;;;5.90;100.00;101904.22;5073425;28;20467;-79
2021/12/12 08:09:22;;;;;;;21.95;16.08;;;;;;;6.08;100.00;101937.22;5079678;28;20062;-79
2021/12/12 08:11:48;;;;;;;27.38;16.08;;;;;;;6.14;100.00;101937.03;5092179;28;20127;-81
2021/12/12 08:14:19;;;;;;;26.13;16.90;;;;;;;6.03;100.00;101923.25;5080746;28;20055;-82
2021/12/12 08:16:46;;;;;;;25.88;16.90;;;;;;;6.04;100.00;101922.38;5095515;28;20024;-81
2021/12/12 08:19:12;;;;;;;28.85;16.73;;;;;;;6.13;100.00;101924.75;5095603;28;20019;-80
2021/12/12 08:21:38;;;;;;;25.92;16.33;;;;;;;6.22;100.00;101948.28;5096000;28;20028;-81
2021/12/12 08:24:10;;;;;;;30.58;17.98;;;;;;;6.21;100.00;101946.56;5095520;28;20060;-81
2021/12/12 08:26:37;;;;;;;27.20;17.02;;;;;;;6.21;100.00;101951.84;5076588;28;20074;-81
2021/12/12 08:29:07;;;;;;;25.15;16.42;;;;;;;6.26;100.00;101960.47;5077079;28;20463;-81
2021/12/12 08:31:34;;;;;;;26.08;16.13;;;;;;;6.08;100.00;101934.56;5095827;28;20024;-80
2021/12/12 08:34:01;;;;;;;30.92;17.88;;;;;;;6.33;100.00;101971.78;5095254;28;20103;-81
2021/12/12 08:36:27;;;;;;;29.50;17.42;;;;;;;6.28;100.00;101968.38;5092310;28;20028;-82
2021/12/12 08:38:52;;;;;;;28.85;16.77;;;;;;;6.31;100.00;101965.66;5076378;28;20039;-80
2021/12/12 08:41:19;;;;;;;28.88;16.10;;;;;;;6.25;100.00;101963.19;5094324;28;20088;-80
2021/12/12 08:43:45;;;;;;;29.13;16.92;;;;;;;6.21;100.00;101954.47;5095839;28;20067;-81
2021/12/12 08:46:13;;;;;;;28.05;16.20;;;;;;;6.25;100.00;101955.25;5095278;28;20490;-81
2021/12/12 08:48:47;;;;;;;30.05;17.27;;;;;;;6.36;100.00;101976.97;5094575;28;20425;-82
2021/12/12 08:51:21;;;;;;;29.65;18.13;;;;;;;6.37;100.00;101981.34;5076894;28;20020;-80
2021/12/12 08:53:50;;;;;;;25.77;17.30;;;;;;;6.29;100.00;101959.53;5094725;28;20059;-84
2021/12/12 08:56:29;;;;;;;30.33;17.35;;;;;;;6.28;100.00;101960.47;5094673;28;20035;-80
2021/12/12 08:58:55;;;;;;;31.15;17.55;;;;;;;6.28;100.00;101957.81;5095302;28;20012;-81
2021/12/12 09:01:21;;;;;;;28.75;17.85;;;;;;;6.14;100.00;101935.25;5095188;28;20028;-82
2021/12/12 09:03:53;;;;;;;33.83;17.92;;;;;;;6.50;100.00;101984.50;5095234;28;20387;-82
2021/12/12 09:06:24;;;;;;;34.03;18.30;;;;;;;6.55;100.00;101993.19;5094915;28;20056;-80
2021/12/12 09:09:14;;;;;;;32.38;18.02;;;;;;;6.49;100.00;102001.28;5094224;28;20044;-81
2021/12/12 09:11:47;;;;;;;;;;;;;;;6.56;100.00;101994.94;5094769;28;20073;-81
2021/12/12 09:14:20;;;;;;;32.67;17.25;;;;;;;6.54;100.00;101994.97;5094891;28;19907;-81
2021/12/12 09:16:53;;;;;;;34.40;17.52;;;;;;;6.56;100.00;101992.28;5094217;28;20032;-80
2021/12/12 09:19:25;;;;;;;29.88;17.60;;;;;;;6.50;100.00;101992.44;5094737;28;20032;-82
2021/12/12 09:22:16;;;;;;;33.17;17.23;;;;;;;6.68;100.00;102004.28;5094882;28;20032;-81
2021/12/12 09:24:49;;;;;;;39.72;18.13;;;;;;;6.65;100.00;102015.81;5094758;28;20020;-82
2021/12/12 09:27:24;;;;;;;37.88;19.00;;;;;;;6.42;100.00;101982.09;5094754;28;20367;-80
2021/12/12 09:30:02;;;;;;;33.33;16.98;;;;;;;6.72;100.00;102021.78;5076422;28;20039;-80
2021/12/12 09:32:39;;;;;;;26.73;15.65;;;;;;;6.66;100.00;102019.31;5076377;28;20039;-80
2021/12/12 09:35:16;;;;;;;31.52;17.52;;;;;;;6.69;100.00;102013.94;5094560;28;20477;-82
2021/12/12 09:37:44;;;;;;;34.85;18.88;;;;;;;6.71;100.00;102030.63;5092531;28;20421;-81
2021/12/12 09:40:56;;;;;;;32.05;18.30;;;;;;;6.60;100.00;102002.72;5094319;28;20069;-79
2021/12/12 09:43:52;;;;;;;32.28;17.63;;;;;;;6.79;100.00;102025.97;5094382;28;20028;-80
2021/12/12 09:47:00;;;;;;;26.95;16.45;;;;;;;6.75;100.00;102024.34;5094346;28;20035;-80
2021/12/12 09:53:08;;;;;;;27.13;16.33;;;;;;;6.91;100.00;102023.00;5094382;28;20116;-82
2021/12/12 09:55:53;;;;;;;29.50;16.48;;;;;;;6.83;100.00;102027.66;5075761;28;20035;-80
2021/12/12 09:59:04;;;;;;;28.38;17.27;;;;;;;6.89;100.00;102038.03;5093474;28;20040;-80
2021/12/12 10:01:39;;;;;;;29.27;17.30;;;;;;;6.90;100.00;102036.25;5070913;28;20248;-82
2021/12/12 10:04:22;;;;;;;28.55;18.00;;;;;;;6.92;100.00;102035.31;5093900;28;20111;-81
2021/12/12 10:06:59;;;;;;;32.83;18.60;;;;;;;6.95;100.00;102037.00;5075182;28;20135;-80
2021/12/12 10:09:38;;;;;;;31.85;17.30;;;;;;;6.99;100.00;102041.28;5093488;28;20028;-81
2021/12/12 10:12:18;;;;;;;35.45;18.75;;;;;;;6.98;100.00;102039.56;5093873;28;20054;-82
2021/12/12 10:14:58;;;;;;;35.22;19.08;;;;;;;6.98;100.00;102037.78;5093877;28;20028;-80
2021/12/12 10:17:29;;;;;;;35.30;18.35;;;;;;;7.00;100.00;102046.53;5093675;28;20053;-80
2021/12/12 10:20:03;;;;;;;30.42;18.45;;;;;;;7.03;100.00;102033.22;5093199;28;20107;-81
2021/12/12 10:23:04;;;;;;;35.22;18.05;;;;;;;6.95;100.00;102026.44;5093597;28;20031;-81
2021/12/12 10:25:52;;;;;;;35.85;19.35;;;;;;;6.93;100.00;102023.81;5074773;28;20034;-81
2021/12/12 10:28:31;;;;;;;31.90;17.73;;;;;;;7.11;100.00;102042.72;5093368;28;20024;-80
2021/12/12 10:31:05;;;;;;;33.85;18.60;;;;;;;7.02;100.00;102020.03;5093089;28;20429;-82
2021/12/12 10:33:43;;;;;;;35.58;17.80;;;;;;;7.15;100.00;102034.66;5075176;28;20027;-79
2021/12/12 10:36:33;;;;;;;30.30;17.92;;;;;;;7.17;100.00;102040.75;5093396;28;20496;-82
2021/12/12 10:39:26;;;;;;;32.95;18.98;;;;;;;7.14;100.00;102037.31;5093146;28;20028;-80
2021/12/12 10:41:59;;;;;;;30.20;17.70;;;;;;;7.14;100.00;102035.53;5092772;28;20028;-80
2021/12/12 10:44:53;;;;;;;31.17;18.40;;;;;;;7.06;100.00;102027.00;5093248;28;20032;-80
2021/12/12 10:47:31;;;;;;;38.25;19.92;;;;;;;7.17;100.00;102042.53;5093000;28;20103;-80
2021/12/12 10:50:34;;;;;;;32.15;19.38;;;;;;;7.03;100.00;102016.50;5093204;28;20059;-82
2021/12/12 10:53:20;;;;;;;30.35;18.48;;;;;;;7.26;100.00;102042.25;5010563;28;20057;-82
2021/12/12 10:55:54;;;;;;;29.48;17.70;;;;;;;7.35;100.00;102046.41;5011020;28;20058;-81
2021/12/12 10:58:25;;;;;;;31.60;18.85;;;;;;;7.31;100.00;102045.63;4994517;28;20026;-81
2021/12/12 11:00:56;;;;;;;33.40;18.92;;;;;;;7.23;100.00;102034.41;5011043;28;20109;-81
2021/12/12 11:03:52;;;;;;;35.95;19.25;;;;;;;7.28;100.00;102045.72;5010393;28;20141;-81
2021/12/12 11:06:58;;;;;;;33.25;17.90;;;;;;;7.37;100.00;102052.53;5010638;28;20640;-80
2021/12/12 11:09:50;;;;;;;29.27;18.83;;;;;;;7.18;100.00;102015.19;4898244;29;20587;-81
2021/12/12 11:12:28;;;;;;;28.40;17.83;;;;;;;7.17;100.00;102011.63;4914394;29;20500;-80
2021/12/12 11:15:19;;;;;;;27.35;17.90;;;;;;;7.38;100.00;102041.00;4913936;28;20619;-80
2021/12/12 11:17:57;;;;;;;25.58;17.42;;;;;;;7.48;100.00;102037.19;4914227;29;20028;-80
2021/12/12 11:20:28;;;;;;;31.15;18.80;;;;;;;7.23;100.00;102005.28;4914387;29;20507;-80
2021/12/12 11:23:02;;;;;;;30.52;18.50;;;;;;;7.21;100.00;102007.16;4914156;29;20111;-82
2021/12/12 11:25:39;;;;;;;29.08;17.50;;;;;;;7.36;100.00;102024.34;4913557;29;20404;-80
2021/12/12 11:28:38;;;;;;;25.63;17.08;;;;;;;7.48;100.00;102029.25;4935557;28;20058;-81
2021/12/12 11:31:12;;;;;;;24.92;17.23;;;;;;;7.50;100.00;102035.34;4971593;28;20078;-81
2021/12/12 11:33:44;;;;;;;23.23;16.45;;;;;;;7.57;100.00;102034.25;4971094;28;20034;-81
2021/12/12 11:36:14;;;;;;;21.95;15.52;;;;;;;7.58;100.00;102030.66;4974153;28;20077;-80
2021/12/12 11:38:46;;;;;;;28.38;15.95;;;;;;;7.57;100.00;102030.72;4975353;28;20043;-80
2021/12/12 11:41:17;;;;;;;24.25;14.73;;;;;;;7.63;100.00;102038.47;4975514;28;20066;-81
2021/12/12 11:43:48;;;;;;;22.90;15.95;;;;;;;7.63;100.00;102036.69;4975133;28;20031;-82
2021/12/12 11:46:20;;;;;;;21.58;15.27;;;;;;;7.62;100.00;102040.25;5034681;28;20077;-81
2021/12/12 11:49:00;;;;;;;23.50;15.88;;;;;;;7.54;100.00;102022.88;5053940;28;20519;-80
2021/12/12 11:51:28;;;;;;;;;;;;;;;7.68;100.00;102037.41;5054637;28;20492;-81
2021/12/12 11:54:41;;;;;;;22.08;14.15;;;;;;;7.68;100.00;102037.41;5052866;28;19998;-82